createdAt,value
2023-05-05T00:00:33.556Z,0.00
2023-05-05T00:01:33.659Z,0.00
2023-05-05T00:02:33.628Z,0.00
2023-05-05T00:03:33.606Z,0.00
2023-05-05T00:04:33.543Z,0.00
2023-05-05T00:05:33.528Z,0.00
2023-05-05T00:06:33.535Z,0.00
2023-05-05T00:07:33.533Z,0.00
2023-05-05T00:08:33.520Z,0.00
2023-05-05T00:09:33.529Z,0.00
2023-05-05T00:10:33.520Z,0.00
2023-05-05T00:11:33.522Z,0.00
2023-05-05T00:12:33.541Z,0.00
2023-05-05T00:13:33.525Z,0.00
2023-05-05T00:14:33.515Z,0.00
2023-05-05T00:15:34.008Z,0.00
2023-05-05T00:16:33.521Z,0.00
2023-05-05T00:17:33.529Z,0.00
2023-05-05T00:18:33.521Z,0.00
2023-05-05T00:19:33.495Z,0.00
2023-05-05T00:20:33.518Z,0.00
2023-05-05T00:21:33.520Z,0.00
2023-05-05T00:22:33.501Z,0.00
2023-05-05T00:23:33.506Z,0.00
2023-05-05T00:24:33.482Z,0.00
2023-05-05T00:25:33.481Z,0.00
2023-05-05T00:26:33.480Z,0.00
2023-05-05T00:27:33.484Z,0.00
2023-05-05T00:28:33.505Z,0.00
2023-05-05T00:29:33.468Z,0.00
2023-05-05T00:30:33.470Z,0.00
2023-05-05T00:31:33.539Z,0.00
2023-05-05T00:32:33.482Z,0.00
2023-05-05T00:33:33.468Z,0.00
2023-05-05T00:34:33.464Z,0.00
2023-05-05T00:35:33.462Z,0.00
2023-05-05T00:36:33.452Z,0.00
2023-05-05T00:37:33.454Z,0.00
2023-05-05T00:38:33.454Z,0.00
2023-05-05T00:39:33.440Z,0.00
2023-05-05T00:40:33.441Z,0.00
2023-05-05T00:41:33.457Z,0.00
2023-05-05T00:42:33.472Z,0.00
2023-05-05T00:43:33.457Z,0.00
2023-05-05T00:44:33.441Z,0.00
2023-05-05T00:45:33.432Z,0.00
2023-05-05T00:46:33.528Z,0.00
2023-05-05T00:47:33.438Z,0.00
2023-05-05T00:48:33.418Z,0.00
2023-05-05T00:49:33.439Z,0.00
2023-05-05T00:50:33.417Z,0.00
2023-05-05T00:51:33.425Z,0.00
2023-05-05T00:52:33.430Z,0.00
2023-05-05T00:53:33.411Z,0.00
2023-05-05T00:54:33.410Z,0.00
2023-05-05T00:55:33.418Z,0.00
2023-05-05T00:56:33.390Z,0.00
2023-05-05T00:57:33.398Z,0.00
2023-05-05T00:58:33.394Z,0.00
2023-05-05T00:59:33.390Z,0.00
2023-05-05T01:00:33.378Z,0.00
2023-05-05T01:01:33.402Z,0.00
2023-05-05T01:02:33.465Z,0.00
2023-05-05T01:03:33.490Z,0.00
2023-05-05T01:04:33.395Z,0.00
2023-05-05T01:05:33.395Z,0.00
2023-05-05T01:06:33.366Z,0.00
2023-05-05T01:07:33.360Z,0.00
2023-05-05T01:08:33.356Z,0.00
2023-05-05T01:09:33.363Z,0.00
2023-05-05T01:10:33.356Z,0.00
2023-05-05T01:11:33.360Z,0.00
2023-05-05T01:12:33.371Z,0.00
2023-05-05T01:13:33.364Z,0.00
2023-05-05T01:14:33.357Z,0.00
2023-05-05T01:15:33.352Z,0.00
2023-05-05T01:16:33.376Z,0.00
2023-05-05T01:17:33.375Z,0.00
2023-05-05T01:18:33.335Z,0.00
2023-05-05T01:19:33.329Z,0.00
2023-05-05T01:20:33.329Z,0.00
2023-05-05T01:21:33.349Z,0.00
2023-05-05T01:22:33.335Z,0.00
2023-05-05T01:23:33.341Z,0.00
2023-05-05T01:24:33.328Z,0.00
2023-05-05T01:25:34.475Z,0.00
2023-05-05T01:26:33.305Z,0.00
2023-05-05T01:27:33.317Z,0.00
2023-05-05T01:28:33.300Z,0.00
2023-05-05T01:29:33.303Z,0.00
2023-05-05T01:30:33.311Z,0.00
2023-05-05T01:31:33.355Z,0.00
2023-05-05T01:32:33.320Z,0.00
2023-05-05T01:33:33.296Z,0.00
2023-05-05T01:34:33.362Z,0.00
2023-05-05T01:35:33.298Z,0.00
2023-05-05T01:36:33.278Z,0.00
2023-05-05T01:37:33.299Z,0.00
2023-05-05T01:38:33.272Z,0.00
2023-05-05T01:39:33.270Z,0.00
2023-05-05T01:40:33.269Z,0.00
2023-05-05T01:41:33.301Z,0.00
2023-05-05T01:42:33.274Z,0.00
2023-05-05T01:43:33.309Z,0.00
2023-05-05T01:44:33.262Z,0.00
2023-05-05T01:45:34.123Z,0.00
2023-05-05T01:46:33.246Z,0.00
2023-05-05T01:47:33.266Z,0.00
2023-05-05T01:48:33.250Z,0.00
2023-05-05T01:49:33.253Z,0.00
2023-05-05T01:50:33.233Z,0.00
2023-05-05T01:51:33.226Z,0.00
2023-05-05T01:52:33.232Z,0.00
2023-05-05T01:53:33.321Z,0.00
2023-05-05T01:54:33.231Z,0.00
2023-05-05T01:55:33.253Z,0.00
2023-05-05T01:56:33.250Z,0.00
2023-05-05T01:57:33.246Z,0.00
2023-05-05T01:58:33.269Z,0.00
2023-05-05T01:59:33.992Z,0.00
2023-05-05T02:00:33.245Z,0.00
2023-05-05T02:01:33.248Z,0.00
2023-05-05T02:02:33.266Z,0.00
2023-05-05T02:03:33.313Z,0.00
2023-05-05T02:04:33.220Z,0.00
2023-05-05T02:05:33.228Z,0.00
2023-05-05T02:06:33.221Z,0.00
2023-05-05T02:07:33.176Z,0.00
2023-05-05T02:08:33.220Z,0.00
2023-05-05T02:09:33.219Z,0.00
2023-05-05T02:10:33.226Z,0.00
2023-05-05T02:11:33.166Z,0.00
2023-05-05T02:12:33.226Z,0.00
2023-05-05T02:13:33.277Z,0.00
2023-05-05T02:14:33.167Z,0.00
2023-05-05T02:15:33.213Z,0.00
2023-05-05T02:16:33.154Z,0.00
2023-05-05T02:17:33.217Z,0.00
2023-05-05T02:18:33.156Z,0.00
2023-05-05T02:19:33.159Z,0.00
2023-05-05T02:20:33.137Z,0.00
2023-05-05T02:21:33.143Z,0.00
2023-05-05T02:22:33.146Z,0.00
2023-05-05T02:23:33.155Z,0.00
2023-05-05T02:24:33.123Z,0.00
2023-05-05T02:25:33.201Z,0.00
2023-05-05T02:26:33.126Z,0.00
2023-05-05T02:27:33.111Z,0.00
2023-05-05T02:28:34.052Z,0.00
2023-05-05T02:29:33.117Z,0.00
2023-05-05T02:30:33.110Z,0.00
2023-05-05T02:31:33.139Z,0.00
2023-05-05T02:32:33.141Z,0.00
2023-05-05T02:33:33.121Z,0.00
2023-05-05T02:34:33.120Z,0.00
2023-05-05T02:35:33.139Z,0.00
2023-05-05T02:36:33.082Z,0.00
2023-05-05T02:37:33.089Z,0.00
2023-05-05T02:38:33.104Z,0.00
2023-05-05T02:39:33.086Z,0.00
2023-05-05T02:40:33.102Z,0.00
2023-05-05T02:41:33.101Z,0.00
2023-05-05T02:42:33.094Z,0.00
2023-05-05T02:43:33.084Z,0.00
2023-05-05T02:44:33.082Z,0.00
2023-05-05T02:45:33.069Z,0.00
2023-05-05T02:46:33.086Z,0.00
2023-05-05T02:47:33.072Z,0.00
2023-05-05T02:48:33.072Z,0.00
2023-05-05T02:49:33.052Z,0.00
2023-05-05T02:50:33.057Z,0.00
2023-05-05T02:51:33.039Z,0.00
2023-05-05T02:52:34.006Z,0.00
2023-05-05T02:53:33.053Z,0.00
2023-05-05T02:54:33.069Z,0.00
2023-05-05T02:55:33.060Z,4.00
2023-05-05T02:56:33.022Z,4.00
2023-05-05T02:57:33.026Z,0.00
2023-05-05T02:58:33.030Z,0.00
2023-05-05T02:59:33.021Z,4.00
2023-05-05T03:00:33.021Z,4.00
2023-05-05T03:01:33.026Z,4.00
2023-05-05T03:02:33.035Z,4.00
2023-05-05T03:03:33.056Z,4.00
2023-05-05T03:04:33.023Z,8.00
2023-05-05T03:05:33.022Z,4.00
2023-05-05T03:06:33.035Z,8.00
2023-05-05T03:07:32.984Z,8.00
2023-05-05T03:08:33.496Z,12.00
2023-05-05T03:09:32.979Z,12.00
2023-05-05T03:10:32.994Z,12.00
2023-05-05T03:11:33.002Z,12.00
2023-05-05T03:12:33.000Z,16.00
2023-05-05T03:13:32.973Z,20.00
2023-05-05T03:14:33.521Z,20.00
2023-05-05T03:15:32.972Z,24.00
2023-05-05T03:16:32.978Z,24.00
2023-05-05T03:17:33.003Z,28.00
2023-05-05T03:18:32.951Z,32.00
2023-05-05T03:19:32.950Z,32.00
2023-05-05T03:20:32.950Z,36.00
2023-05-05T03:21:32.970Z,40.00
2023-05-05T03:22:32.945Z,48.00
2023-05-05T03:23:33.497Z,56.00
2023-05-05T03:24:32.925Z,56.00
2023-05-05T03:25:32.944Z,64.00
2023-05-05T03:26:32.938Z,72.00
2023-05-05T03:27:32.938Z,76.00
2023-05-05T03:28:32.904Z,84.00
2023-05-05T03:29:32.912Z,92.00
2023-05-05T03:30:32.918Z,96.00
2023-05-05T03:31:32.926Z,104.00
2023-05-05T03:32:32.924Z,112.00
2023-05-05T03:33:32.893Z,120.00
2023-05-05T03:34:32.904Z,128.00
2023-05-05T03:35:32.893Z,140.00
2023-05-05T03:36:33.499Z,148.00
2023-05-05T03:37:32.878Z,160.00
2023-05-05T03:38:32.876Z,168.00
2023-05-05T03:39:32.893Z,180.00
2023-05-05T03:40:43.066Z,188.00
2023-05-05T03:41:32.876Z,200.00
2023-05-05T03:42:32.872Z,212.00
2023-05-05T03:43:32.863Z,224.00
2023-05-05T03:44:32.854Z,232.00
2023-05-05T03:45:32.913Z,244.00
2023-05-05T03:46:32.852Z,256.00
2023-05-05T03:47:32.872Z,264.00
2023-05-05T03:48:32.861Z,280.00
2023-05-05T03:49:32.854Z,292.00
2023-05-05T03:50:32.855Z,308.00
2023-05-05T03:51:32.842Z,324.00
2023-05-05T03:52:32.866Z,344.00
2023-05-05T03:53:32.831Z,364.00
2023-05-05T03:54:32.815Z,384.00
2023-05-05T03:55:32.832Z,408.00
2023-05-05T03:56:32.836Z,424.00
2023-05-05T03:57:32.832Z,444.00
2023-05-05T03:58:32.809Z,464.00
2023-05-05T03:59:32.814Z,484.00
2023-05-05T04:00:32.798Z,504.00
2023-05-05T04:01:32.804Z,524.00
2023-05-05T04:02:32.981Z,544.00
2023-05-05T04:03:32.927Z,568.00
2023-05-05T04:04:32.841Z,588.00
2023-05-05T04:05:32.785Z,624.00
2023-05-05T04:06:32.788Z,656.00
2023-05-05T04:07:32.783Z,696.00
2023-05-05T04:08:32.787Z,732.00
2023-05-05T04:09:32.782Z,760.00
2023-05-05T04:10:32.790Z,796.00
2023-05-05T04:11:32.776Z,828.00
2023-05-05T04:12:32.898Z,868.00
2023-05-05T04:13:32.787Z,888.00
2023-05-05T04:14:32.751Z,928.00
2023-05-05T04:15:32.749Z,976.00
2023-05-05T04:16:32.799Z,1036.00
2023-05-05T04:17:32.772Z,1096.00
2023-05-05T04:18:32.735Z,1152.00
2023-05-05T04:19:32.749Z,1208.00
2023-05-05T04:20:32.727Z,1268.00
2023-05-05T04:21:32.731Z,1340.00
2023-05-05T04:22:33.551Z,1400.00
2023-05-05T04:23:32.799Z,1440.00
2023-05-05T04:24:32.753Z,1472.00
2023-05-05T04:25:32.728Z,1496.00
2023-05-05T04:26:32.712Z,1520.00
2023-05-05T04:27:32.711Z,1524.00
2023-05-05T04:28:32.711Z,1520.00
2023-05-05T04:29:32.706Z,1536.00
2023-05-05T04:30:32.705Z,1540.00
2023-05-05T04:31:32.760Z,1548.00
2023-05-05T04:32:32.751Z,1572.00
2023-05-05T04:33:32.696Z,1596.00
2023-05-05T04:34:32.710Z,1616.00
2023-05-05T04:35:32.728Z,1640.00
2023-05-05T04:36:32.690Z,1660.00
2023-05-05T04:37:33.543Z,1672.00
2023-05-05T04:38:32.848Z,1676.00
2023-05-05T04:39:32.776Z,1684.00
2023-05-05T04:40:32.697Z,1740.00
2023-05-05T04:41:32.752Z,1828.00
2023-05-05T04:42:32.746Z,1872.00
2023-05-05T04:43:32.745Z,1932.00
2023-05-05T04:44:32.754Z,1960.00
2023-05-05T04:45:32.651Z,2000.00
2023-05-05T04:46:32.750Z,2048.00
2023-05-05T04:47:32.639Z,2116.00
2023-05-05T04:48:32.670Z,2188.00
2023-05-05T04:49:32.792Z,2256.00
2023-05-05T04:50:32.652Z,2308.00
2023-05-05T04:51:32.637Z,2364.00
2023-05-05T04:52:32.626Z,2400.00
2023-05-05T04:53:32.614Z,2384.00
2023-05-05T04:54:32.611Z,2296.00
2023-05-05T04:55:32.609Z,2272.00
2023-05-05T04:56:32.604Z,2340.00
2023-05-05T04:57:32.659Z,2428.00
2023-05-05T04:58:32.617Z,2440.00
2023-05-05T04:59:32.654Z,2544.00
2023-05-05T05:00:33.573Z,2792.00
2023-05-05T05:01:32.612Z,2856.00
2023-05-05T05:02:32.658Z,2932.00
2023-05-05T05:03:32.678Z,3032.00
2023-05-05T05:04:32.575Z,3052.00
2023-05-05T05:05:32.592Z,3060.00
2023-05-05T05:06:32.585Z,3028.00
2023-05-05T05:07:32.564Z,3060.00
2023-05-05T05:08:32.564Z,3176.00
2023-05-05T05:09:32.592Z,3164.00
2023-05-05T05:10:32.601Z,3120.00
2023-05-05T05:11:32.574Z,3236.00
2023-05-05T05:12:32.639Z,3320.00
2023-05-05T05:13:32.554Z,3400.00
2023-05-05T05:14:32.564Z,3476.00
2023-05-05T05:15:32.577Z,3504.00
2023-05-05T05:16:32.588Z,3536.00
2023-05-05T05:17:32.599Z,3580.00
2023-05-05T05:18:32.565Z,3624.00
2023-05-05T05:19:32.557Z,3668.00
2023-05-05T05:20:32.542Z,3728.00
2023-05-05T05:21:32.558Z,3816.00
2023-05-05T05:22:32.534Z,3904.00
2023-05-05T05:23:32.537Z,3996.00
2023-05-05T05:24:32.546Z,4100.00
2023-05-05T05:25:32.533Z,4236.00
2023-05-05T05:26:32.545Z,4416.00
2023-05-05T05:27:33.053Z,4616.00
2023-05-05T05:28:32.521Z,4868.00
2023-05-05T05:29:32.514Z,5240.00
2023-05-05T05:30:32.536Z,5556.00
2023-05-05T05:31:32.534Z,5796.00
2023-05-05T05:32:32.548Z,5988.00
2023-05-05T05:33:32.488Z,6208.00
2023-05-05T05:34:32.490Z,6540.00
2023-05-05T05:35:32.491Z,10696.00
2023-05-05T05:36:32.530Z,37088.00
2023-05-05T05:37:32.494Z,57696.00
2023-05-05T05:38:32.463Z,64928.00
2023-05-05T05:39:32.465Z,54048.00
2023-05-05T05:40:32.465Z,61536.00
2023-05-05T05:41:32.578Z,68800.00
2023-05-05T05:42:32.461Z,70528.00
2023-05-05T05:43:32.449Z,69088.00
2023-05-05T05:44:32.469Z,71296.00
2023-05-05T05:45:32.477Z,71456.00
2023-05-05T05:46:32.545Z,74048.00
2023-05-05T05:47:32.503Z,76672.00
2023-05-05T05:48:32.460Z,79008.00
2023-05-05T05:49:33.044Z,62720.00
2023-05-05T05:50:32.483Z,42240.00
2023-05-05T05:51:32.502Z,70688.00
2023-05-05T05:52:32.472Z,80640.00
2023-05-05T05:53:32.499Z,82592.00
2023-05-05T05:54:32.491Z,82528.00
2023-05-05T05:55:32.485Z,84032.00
2023-05-05T05:56:32.502Z,82816.00
2023-05-05T05:57:32.519Z,83840.00
2023-05-05T05:58:32.515Z,86944.00
2023-05-05T05:59:32.515Z,86560.00
2023-05-05T06:00:32.570Z,86240.00
2023-05-05T06:01:32.528Z,83104.00
2023-05-05T06:02:32.615Z,79872.00
2023-05-05T06:03:32.681Z,83616.00
2023-05-05T06:04:32.613Z,91200.00
2023-05-05T06:05:32.626Z,67744.00
2023-05-05T06:06:32.563Z,69888.00
2023-05-05T06:07:32.612Z,68864.00
2023-05-05T06:08:33.542Z,80288.00
2023-05-05T06:09:32.596Z,56224.00
2023-05-05T06:10:33.010Z,45664.00
2023-05-05T06:11:32.601Z,37344.00
2023-05-05T06:12:32.630Z,30944.00
2023-05-05T06:13:32.627Z,35232.00
2023-05-05T06:14:32.640Z,26496.00
2023-05-05T06:15:32.653Z,27136.00
2023-05-05T06:16:32.782Z,24352.00
2023-05-05T06:17:33.550Z,32896.00
2023-05-05T06:18:32.665Z,33024.00
2023-05-05T06:19:32.736Z,31776.00
2023-05-05T06:20:32.697Z,47040.00
2023-05-05T06:21:32.682Z,66240.00
2023-05-05T06:22:32.700Z,85856.00
2023-05-05T06:23:32.702Z,87808.00
2023-05-05T06:24:32.704Z,81440.00
2023-05-05T06:25:32.747Z,68736.00
2023-05-05T06:26:32.717Z,72256.00
2023-05-05T06:27:32.729Z,82272.00
2023-05-05T06:28:32.751Z,91008.00
2023-05-05T06:29:32.788Z,40960.00
2023-05-05T06:30:32.849Z,62400.00
2023-05-05T06:31:32.787Z,89344.00
2023-05-05T06:32:32.774Z,83840.00
2023-05-05T06:33:32.766Z,60864.00
2023-05-05T06:34:32.768Z,39488.00
2023-05-05T06:35:32.777Z,58208.00
2023-05-05T06:36:32.848Z,61376.00
2023-05-05T06:37:32.797Z,69152.00
2023-05-05T06:38:32.853Z,59584.00
2023-05-05T06:39:32.825Z,65760.00
2023-05-05T06:40:32.832Z,52896.00
2023-05-05T06:41:32.842Z,54656.00
2023-05-05T06:42:32.858Z,40928.00
2023-05-05T06:43:32.933Z,40224.00
2023-05-05T06:44:32.844Z,40672.00
2023-05-05T06:45:32.879Z,73888.00
2023-05-05T06:46:32.923Z,73536.00
2023-05-05T06:47:32.903Z,77216.00
2023-05-05T06:48:32.897Z,80544.00
2023-05-05T06:49:32.898Z,70048.00
2023-05-05T06:50:32.902Z,72416.00
2023-05-05T06:51:32.910Z,86048.00
2023-05-05T06:52:33.570Z,87136.00
2023-05-05T06:53:32.995Z,86912.00
2023-05-05T06:54:32.937Z,67808.00
2023-05-05T06:55:32.977Z,69632.00
2023-05-05T06:56:32.976Z,55648.00
2023-05-05T06:57:33.031Z,54400.00
2023-05-05T06:58:33.014Z,57600.00
2023-05-05T06:59:33.001Z,56768.00
2023-05-05T07:00:33.062Z,40448.00
2023-05-05T07:01:33.036Z,48800.00
2023-05-05T07:02:33.059Z,34272.00
2023-05-05T07:03:33.065Z,27904.00
2023-05-05T07:04:33.044Z,27040.00
2023-05-05T07:05:33.031Z,30112.00
2023-05-05T07:06:33.056Z,29024.00
2023-05-05T07:07:33.056Z,41184.00
2023-05-05T07:08:33.075Z,42464.00
2023-05-05T07:09:33.066Z,47648.00
2023-05-05T07:10:33.094Z,44512.00
2023-05-05T07:11:33.115Z,47776.00
2023-05-05T07:12:33.210Z,54080.00
2023-05-05T07:13:33.187Z,49984.00
2023-05-05T07:14:33.130Z,51456.00
2023-05-05T07:15:33.174Z,49952.00
2023-05-05T07:16:33.225Z,56160.00
2023-05-05T07:17:33.170Z,59072.00
2023-05-05T07:18:33.152Z,65184.00
2023-05-05T07:19:33.489Z,59808.00
2023-05-05T07:20:33.198Z,64448.00
2023-05-05T07:21:33.197Z,53888.00
2023-05-05T07:22:33.200Z,56416.00
2023-05-05T07:23:33.192Z,70720.00
2023-05-05T07:24:33.198Z,62720.00
2023-05-05T07:25:33.199Z,73440.00
2023-05-05T07:26:33.225Z,74496.00
2023-05-05T07:27:33.226Z,82560.00
2023-05-05T07:28:33.239Z,82848.00
2023-05-05T07:29:33.314Z,79296.00
2023-05-05T07:30:33.258Z,83776.00
2023-05-05T07:31:33.292Z,81408.00
2023-05-05T07:32:33.317Z,83392.00
2023-05-05T07:33:33.288Z,85280.00
2023-05-05T07:34:33.321Z,84416.00
2023-05-05T07:35:33.303Z,81568.00
2023-05-05T07:36:33.324Z,79488.00
2023-05-05T07:37:33.315Z,83616.00
2023-05-05T07:38:33.339Z,90400.00
2023-05-05T07:39:33.411Z,91776.00
2023-05-05T07:40:33.357Z,92864.00
2023-05-05T07:41:33.385Z,90496.00
2023-05-05T07:42:33.401Z,89216.00
2023-05-05T07:43:33.402Z,93984.00
2023-05-05T07:44:33.406Z,91136.00
2023-05-05T07:45:33.528Z,84640.00
2023-05-05T07:46:33.608Z,82368.00
2023-05-05T07:47:33.486Z,81120.00
2023-05-05T07:48:33.453Z,74208.00
2023-05-05T07:49:33.567Z,68864.00
2023-05-05T07:50:33.478Z,66336.00
2023-05-05T07:51:34.575Z,71584.00
2023-05-05T07:52:45.054Z,79712.00
2023-05-05T07:53:33.568Z,81696.00
2023-05-05T07:54:33.526Z,78656.00
2023-05-05T07:55:33.548Z,78848.00
2023-05-05T07:56:33.586Z,78048.00
2023-05-05T07:57:34.112Z,75136.00
2023-05-05T07:58:33.594Z,77152.00
2023-05-05T07:59:33.654Z,63008.00
2023-05-05T08:00:33.613Z,31712.00
2023-05-05T08:01:33.902Z,21376.00
2023-05-05T08:02:33.813Z,19680.00
2023-05-05T08:03:33.979Z,18688.00
2023-05-05T08:04:33.737Z,17920.00
2023-05-05T08:05:33.688Z,17440.00
2023-05-05T08:06:33.694Z,16960.00
2023-05-05T08:07:33.713Z,16576.00
2023-05-05T08:08:33.734Z,16224.00
2023-05-05T08:09:33.745Z,15484.00
2023-05-05T08:10:33.759Z,14992.00
2023-05-05T08:11:33.752Z,14532.00
2023-05-05T08:12:33.846Z,14112.00
2023-05-05T08:13:33.788Z,13580.00
2023-05-05T08:14:33.823Z,12716.00
2023-05-05T08:15:33.790Z,12936.00
2023-05-05T08:16:34.019Z,12616.00
2023-05-05T08:17:34.012Z,12132.00
2023-05-05T08:18:33.878Z,11908.00
2023-05-05T08:19:33.863Z,11664.00
2023-05-05T08:20:33.887Z,11452.00
2023-05-05T08:21:33.888Z,11000.00
2023-05-05T08:22:33.912Z,10936.00
2023-05-05T08:23:33.896Z,10740.00
2023-05-05T08:24:33.932Z,10424.00
2023-05-05T08:25:33.931Z,10300.00
2023-05-05T08:26:33.893Z,10104.00
2023-05-05T08:27:33.912Z,10032.00
2023-05-05T08:28:33.923Z,9840.00
2023-05-05T08:29:33.927Z,9728.00
2023-05-05T08:30:33.962Z,9556.00
2023-05-05T08:31:33.993Z,9548.00
2023-05-05T08:32:34.020Z,9440.00
2023-05-05T08:33:34.028Z,9252.00
2023-05-05T08:34:34.004Z,9240.00
2023-05-05T08:35:33.964Z,9028.00
2023-05-05T08:36:34.034Z,9008.00
2023-05-05T08:37:33.958Z,8848.00
2023-05-05T08:38:33.985Z,8884.00
2023-05-05T08:39:33.993Z,8856.00
2023-05-05T08:40:33.982Z,8736.00
2023-05-05T08:41:34.039Z,8716.00
2023-05-05T08:42:38.765Z,8596.00
2023-05-05T08:43:34.028Z,8432.00
2023-05-05T08:44:34.055Z,8436.00
2023-05-05T08:45:33.993Z,8308.00
2023-05-05T08:46:34.083Z,8280.00
2023-05-05T08:47:34.082Z,8372.00
2023-05-05T08:48:34.000Z,8416.00
2023-05-05T08:49:34.084Z,8424.00
2023-05-05T08:50:34.039Z,8476.00
2023-05-05T08:51:34.051Z,8424.00
2023-05-05T08:52:34.100Z,8396.00
2023-05-05T08:53:34.046Z,8452.00
2023-05-05T08:54:34.063Z,8532.00
2023-05-05T08:55:34.071Z,8520.00
2023-05-05T08:56:34.126Z,8344.00
2023-05-05T08:57:34.029Z,8124.00
2023-05-05T08:58:34.039Z,8024.00
2023-05-05T08:59:34.095Z,7932.00
2023-05-05T09:00:34.058Z,7832.00
2023-05-05T09:01:34.222Z,7864.00
2023-05-05T09:02:34.189Z,7756.00
2023-05-05T09:03:34.154Z,7928.00
2023-05-05T09:04:34.049Z,8000.00
2023-05-05T09:05:34.130Z,7996.00
2023-05-05T09:06:34.192Z,7888.00
2023-05-05T09:07:34.149Z,7796.00
2023-05-05T09:08:34.165Z,7728.00
2023-05-05T09:09:34.148Z,7420.00
2023-05-05T09:10:34.127Z,7176.00
2023-05-05T09:11:34.305Z,7588.00
2023-05-05T09:12:34.170Z,7500.00
2023-05-05T09:13:34.137Z,7360.00
2023-05-05T09:14:34.162Z,7212.00
2023-05-05T09:15:34.133Z,7096.00
2023-05-05T09:16:34.181Z,7052.00
2023-05-05T09:17:34.163Z,6936.00
2023-05-05T09:18:34.082Z,6988.00
2023-05-05T09:19:34.126Z,6848.00
2023-05-05T09:20:34.213Z,6796.00
2023-05-05T09:21:34.565Z,6736.00
2023-05-05T09:22:34.204Z,6632.00
2023-05-05T09:23:34.126Z,6488.00
2023-05-05T09:24:34.234Z,6400.00
2023-05-05T09:25:34.210Z,6388.00
2023-05-05T09:26:38.747Z,6508.00
2023-05-05T09:27:34.196Z,6752.00
2023-05-05T09:28:34.127Z,6920.00
2023-05-05T09:29:34.205Z,6936.00
2023-05-05T09:30:34.153Z,7060.00
2023-05-05T09:31:34.172Z,7080.00
2023-05-05T09:32:34.342Z,6956.00
2023-05-05T09:33:34.146Z,6964.00
2023-05-05T09:34:34.195Z,6716.00
2023-05-05T09:35:34.160Z,6912.00
2023-05-05T09:36:34.670Z,6576.00
2023-05-05T09:37:34.226Z,6236.00
2023-05-05T09:38:34.244Z,5956.00
2023-05-05T09:39:34.170Z,6432.00
2023-05-05T09:40:34.159Z,6812.00
2023-05-05T09:41:34.160Z,6976.00
2023-05-05T09:42:34.150Z,6964.00
2023-05-05T09:43:34.154Z,7708.00
2023-05-05T09:44:34.202Z,7860.00
2023-05-05T09:45:34.168Z,7824.00
2023-05-05T09:46:34.216Z,8328.00
2023-05-05T09:47:34.893Z,8860.00
2023-05-05T09:48:34.224Z,9092.00
2023-05-05T09:49:34.173Z,9092.00
2023-05-05T09:50:34.205Z,9116.00
2023-05-05T09:51:34.183Z,9004.00
2023-05-05T09:52:34.161Z,8616.00
2023-05-05T09:53:34.255Z,8176.00
2023-05-05T09:54:34.181Z,7880.00
2023-05-05T09:55:34.200Z,7700.00
2023-05-05T09:56:34.195Z,7556.00
2023-05-05T09:57:34.189Z,7332.00
2023-05-05T09:58:34.281Z,6740.00
2023-05-05T09:59:34.191Z,6820.00
2023-05-05T10:00:34.208Z,6292.00
2023-05-05T10:01:34.334Z,5948.00
2023-05-05T10:02:34.271Z,6420.00
2023-05-05T10:03:34.206Z,6744.00
2023-05-05T10:04:34.247Z,6812.00
2023-05-05T10:05:34.211Z,6900.00
2023-05-05T10:06:34.202Z,7368.00
2023-05-05T10:07:34.224Z,8244.00
2023-05-05T10:08:34.255Z,8440.00
2023-05-05T10:09:34.215Z,8096.00
2023-05-05T10:10:34.275Z,8160.00
2023-05-05T10:11:34.224Z,7768.00
2023-05-05T10:12:34.232Z,7576.00
2023-05-05T10:13:34.250Z,7840.00
2023-05-05T10:14:34.215Z,8632.00
2023-05-05T10:15:34.226Z,7584.00
2023-05-05T10:16:34.271Z,7604.00
2023-05-05T10:17:34.284Z,7500.00
2023-05-05T10:18:34.290Z,7740.00
2023-05-05T10:19:34.256Z,7716.00
2023-05-05T10:20:35.183Z,7992.00
2023-05-05T10:21:34.305Z,7712.00
2023-05-05T10:22:34.250Z,8048.00
2023-05-05T10:23:34.245Z,7964.00
2023-05-05T10:24:34.263Z,7876.00
2023-05-05T10:25:35.182Z,8300.00
2023-05-05T10:26:34.254Z,8276.00
2023-05-05T10:27:34.256Z,7976.00
2023-05-05T10:28:34.299Z,7576.00
2023-05-05T10:29:34.253Z,7280.00
2023-05-05T10:30:34.260Z,6908.00
2023-05-05T10:31:34.300Z,6424.00
2023-05-05T10:33:34.372Z,6380.00
2023-05-05T10:34:34.352Z,6340.00
2023-05-05T10:35:35.200Z,6224.00
2023-05-05T10:36:34.361Z,6228.00
2023-05-05T10:37:34.377Z,6208.00
2023-05-05T10:38:34.313Z,6052.00
2023-05-05T10:39:34.272Z,5860.00
2023-05-05T10:40:34.282Z,5660.00
2023-05-05T10:41:34.281Z,5584.00
2023-05-05T10:42:34.291Z,5376.00
2023-05-05T10:43:34.294Z,5172.00
2023-05-05T10:44:34.332Z,5232.00
2023-05-05T10:45:34.386Z,5104.00
2023-05-05T10:46:34.363Z,5012.00
2023-05-05T10:47:34.332Z,4932.00
2023-05-05T10:48:34.344Z,4832.00
2023-05-05T10:49:34.312Z,4744.00
2023-05-05T10:50:34.312Z,4700.00
2023-05-05T10:51:40.058Z,4660.00
2023-05-05T10:52:34.308Z,4636.00
2023-05-05T10:53:34.350Z,4636.00
2023-05-05T10:54:36.377Z,4628.00
2023-05-05T10:55:34.378Z,4668.00
2023-05-05T10:56:34.306Z,4696.00
2023-05-05T10:57:34.517Z,4720.00
2023-05-05T10:58:43.709Z,4720.00
2023-05-05T10:59:34.333Z,4696.00
2023-05-05T11:00:34.348Z,4668.00
2023-05-05T11:01:34.626Z,4636.00
2023-05-05T11:02:34.351Z,4596.00
2023-05-05T11:03:34.354Z,4548.00
2023-05-05T11:04:34.336Z,4536.00
2023-05-05T11:05:34.343Z,4564.00
2023-05-05T11:06:34.348Z,4568.00
2023-05-05T11:07:34.342Z,4616.00
2023-05-05T11:08:34.361Z,4664.00
2023-05-05T11:09:34.344Z,4648.00
2023-05-05T11:10:34.344Z,4640.00
2023-05-05T11:11:34.449Z,4688.00
2023-05-05T11:12:36.058Z,4724.00
2023-05-05T11:13:34.424Z,4748.00
2023-05-05T11:14:34.397Z,4712.00
2023-05-05T11:15:34.362Z,4700.00
2023-05-05T11:16:34.383Z,4692.00
2023-05-05T11:17:34.394Z,4776.00
2023-05-05T11:18:34.410Z,3960.00
2023-05-05T11:19:34.375Z,4020.00
2023-05-05T11:20:34.354Z,4072.00
2023-05-05T11:21:34.364Z,4220.00
2023-05-05T11:22:34.365Z,4348.00
2023-05-05T11:23:34.375Z,4636.00
2023-05-05T11:24:34.382Z,4820.00
2023-05-05T11:25:34.361Z,4912.00
2023-05-05T11:26:34.394Z,4920.00
2023-05-05T11:27:34.378Z,4804.00
2023-05-05T11:28:34.425Z,4744.00
2023-05-05T11:29:34.397Z,4724.00
2023-05-05T11:30:34.407Z,4564.00
2023-05-05T11:31:34.454Z,4644.00
2023-05-05T11:32:34.438Z,4752.00
2023-05-05T11:33:34.402Z,4624.00
2023-05-05T11:34:34.373Z,4484.00
2023-05-05T11:35:34.462Z,4460.00
2023-05-05T11:36:34.429Z,4608.00
2023-05-05T11:37:34.391Z,4996.00
2023-05-05T11:38:34.381Z,5192.00
2023-05-05T11:39:34.386Z,5240.00
2023-05-05T11:40:34.428Z,5288.00
2023-05-05T11:41:34.395Z,5396.00
2023-05-05T11:42:34.399Z,5484.00
2023-05-05T11:43:34.377Z,5932.00
2023-05-05T11:44:34.418Z,5924.00
2023-05-05T11:45:36.352Z,5908.00
2023-05-05T11:46:34.406Z,6044.00
2023-05-05T11:47:34.522Z,6040.00
2023-05-05T11:48:34.471Z,6032.00
2023-05-05T11:49:34.397Z,6224.00
2023-05-05T11:50:34.483Z,6360.00
2023-05-05T11:51:34.484Z,6596.00
2023-05-05T11:52:34.559Z,6808.00
2023-05-05T11:53:34.398Z,6412.00
2023-05-05T11:54:34.498Z,6544.00
2023-05-05T11:55:34.684Z,6348.00
2023-05-05T11:56:34.402Z,6472.00
2023-05-05T11:57:34.453Z,6856.00
2023-05-05T11:58:34.432Z,7104.00
2023-05-05T11:59:34.409Z,7072.00
2023-05-05T12:00:34.462Z,6664.00
2023-05-05T12:01:34.524Z,6600.00
2023-05-05T12:02:34.481Z,6696.00
2023-05-05T12:03:34.536Z,6616.00
2023-05-05T12:04:34.482Z,6336.00
2023-05-05T12:05:37.051Z,6364.00
2023-05-05T12:06:34.428Z,6296.00
2023-05-05T12:07:34.433Z,6660.00
2023-05-05T12:08:34.447Z,7020.00
2023-05-05T12:09:34.465Z,6368.00
2023-05-05T12:10:34.424Z,7044.00
2023-05-05T12:11:34.426Z,7020.00
2023-05-05T12:12:34.444Z,6884.00
2023-05-05T12:13:34.445Z,6816.00
2023-05-05T12:14:34.449Z,6968.00
2023-05-05T12:15:34.443Z,6740.00
2023-05-05T12:16:34.524Z,6368.00
2023-05-05T12:17:34.566Z,6460.00
2023-05-05T12:18:34.448Z,6208.00
2023-05-05T12:19:34.470Z,5712.00
2023-05-05T12:20:34.450Z,5560.00
2023-05-05T12:21:34.447Z,5456.00